Time;durP1;ratioP1;P1;durP2;ratioP2;P2;SDS_P1;SDS_P2;PMS_P1;PMS_P2;Temp;Humidity;BMP_temperature;BMP_pressure;BME280_temperature;BME280_humidity;BME280_pressure;Samples;Min_cycle;Max_cycle;Signal;HPM_P1;HPM_P2
2023/03/23 00:01:20;;;;;;;3.97;3.43;;;13.00;99.90;;;;;;4979922;28;20463;-71
2023/03/23 00:03:50;;;;;;;3.73;3.43;;;13.00;99.90;;;;;;4979891;28;20460;-71
2023/03/23 00:06:25;;;;;;;3.50;3.13;;;13.00;99.90;;;;;;5012234;28;20399;-70
2023/03/23 00:08:56;;;;;;;5.87;3.50;;;13.00;99.90;;;;;;4973207;28;20520;-70
2023/03/23 00:11:26;;;;;;;4.00;2.73;;;13.00;99.90;;;;;;4976459;28;20410;-71
2023/03/23 00:13:57;;;;;;;3.97;3.07;;;13.00;99.90;;;;;;4976487;28;20977;-71
2023/03/23 00:16:37;;;;;;;4.83;2.70;;;13.00;99.90;;;;;;4945445;28;20859;-71
2023/03/23 00:19:10;;;;;;;3.33;2.87;;;13.00;99.90;;;;;;4993987;28;20478;-70
2023/03/23 00:21:38;;;;;;;3.33;2.97;;;13.00;99.90;;;;;;4993740;28;20421;-70
2023/03/23 00:24:09;;;;;;;4.90;2.90;;;13.00;99.90;;;;;;4976731;28;20440;-70
2023/03/23 00:26:43;;;;;;;5.57;2.60;;;13.00;99.90;;;;;;4962927;28;21007;-70
2023/03/23 00:29:20;;;;;;;4.57;2.83;;;13.00;99.90;;;;;;4980475;28;20440;-70
2023/03/23 00:31:56;;;;;;;4.13;3.10;;;13.00;99.90;;;;;;4995875;28;20439;-70
2023/03/23 00:34:24;;;;;;;3.13;2.60;;;13.00;99.90;;;;;;4995593;28;20484;-70
2023/03/23 00:36:56;;;;;;;3.17;2.77;;;13.00;99.90;;;;;;4996136;28;20418;-70
2023/03/23 00:39:26;;;;;;;4.83;2.90;;;13.00;99.90;;;;;;4979565;28;20964;-70
2023/03/23 00:42:00;;;;;;;3.67;2.87;;;13.00;99.90;;;;;;4979638;28;20440;-70
2023/03/23 00:44:30;;;;;;;3.60;2.50;;;13.00;99.90;;;;;;4979771;28;20482;-70
2023/03/23 00:47:00;;;;;;;3.20;2.90;;;13.00;99.90;;;;;;4995439;28;20478;-70
2023/03/23 00:49:26;;;;;;;6.57;3.10;;;13.00;99.90;;;;;;5013230;28;20464;-70
2023/03/23 00:51:57;;;;;;;3.17;2.87;;;13.00;99.90;;;;;;4980111;28;20414;-70
2023/03/23 00:54:25;;;;;;;4.53;2.60;;;13.00;99.90;;;;;;4999270;28;20434;-71
2023/03/23 00:56:55;;;;;;;3.60;2.80;;;13.00;99.90;;;;;;4983117;28;20463;-71
2023/03/23 00:59:23;;;;;;;3.53;2.53;;;13.00;99.90;;;;;;4998840;28;20434;-71
2023/03/23 01:01:50;;;;;;;4.53;2.80;;;13.00;99.90;;;;;;4983039;28;20935;-71
2023/03/23 01:04:19;;;;;;;5.03;3.00;;;13.00;99.90;;;;;;4999223;28;20836;-70
2023/03/23 01:06:51;;;;;;;3.20;2.90;;;13.00;99.90;;;;;;4982897;28;20523;-70
2023/03/23 01:09:26;;;;;;;3.90;2.83;;;13.00;99.90;;;;;;4983323;28;20444;-70
2023/03/23 01:11:57;;;;;;;3.33;2.80;;;13.00;99.90;;;;;;4999272;28;20398;-70
2023/03/23 01:14:27;;;;;;;5.00;3.17;;;13.00;99.90;;;;;;4983110;28;20935;-70
2023/03/23 01:16:58;;;;;;;3.47;3.00;;;13.00;99.90;;;;;;4999044;28;20421;-70
2023/03/23 01:19:31;;;;;;;3.10;2.80;;;13.00;99.90;;;;;;4982936;28;20474;-70
2023/03/23 01:21:59;;;;;;;3.53;3.23;;;13.00;99.90;;;;;;4983123;28;20430;-70
2023/03/23 01:24:27;;;;;;;4.70;3.20;;;13.00;99.90;;;;;;4982586;28;20428;-70
2023/03/23 01:26:56;;;;;;;3.17;2.53;;;13.00;99.90;;;;;;4998984;28;20983;-70
2023/03/23 01:29:27;;;;;;;3.90;3.20;;;13.00;99.90;;;;;;4999206;28;20431;-70
2023/03/23 01:31:58;;;;;;;4.70;2.67;;;13.00;99.90;;;;;;4998919;28;20800;-70
2023/03/23 01:34:26;;;;;;;5.10;2.43;;;13.00;99.90;;;;;;4998905;28;20395;-70
2023/03/23 01:36:56;;;;;;;4.10;3.10;;;13.00;99.90;;;;;;5015974;28;20423;-70
2023/03/23 01:39:24;;;;;;;6.97;3.40;;;13.00;99.90;;;;;;4998516;28;20445;-70
2023/03/23 01:41:50;;;;;;;4.03;3.00;;;13.00;99.90;;;;;;4998475;28;20504;-71
2023/03/23 01:44:20;;;;;;;4.60;2.80;;;13.00;99.90;;;;;;4998456;28;20500;-71
2023/03/23 01:46:54;;;;;;;4.13;2.70;;;13.00;99.90;;;;;;5014619;28;20663;-71
2023/03/23 01:49:28;;;;;;;3.27;2.53;;;13.00;99.90;;;;;;4998095;28;20447;-71
2023/03/23 01:52:01;;;;;;;3.07;2.53;;;13.00;99.90;;;;;;4998500;28;20509;-71
2023/03/23 01:54:28;;;;;;;3.40;2.73;;;13.00;99.90;;;;;;4981989;28;20490;-71
2023/03/23 01:57:00;;;;;;;2.80;2.50;;;13.00;99.90;;;;;;4998134;28;20404;-71
2023/03/23 01:59:29;;;;;;;3.97;3.10;;;13.00;99.90;;;;;;4998037;28;20444;-71
2023/03/23 02:02:21;;;;;;;4.03;2.47;;;13.00;99.90;;;;;;5000968;28;20413;-70
2023/03/23 02:04:59;;;;;;;4.23;2.60;;;13.00;99.90;;;;;;4977369;28;20485;-70
2023/03/23 02:07:26;;;;;;;2.60;2.40;;;13.00;99.90;;;;;;4962386;28;20508;-70
2023/03/23 02:09:55;;;;;;;2.73;2.37;;;13.00;99.90;;;;;;4978244;28;20499;-70
2023/03/23 02:12:21;;;;;;;3.70;2.80;;;13.00;99.90;;;;;;4962333;28;20434;-69
2023/03/23 02:14:54;;;;;;;2.50;2.10;;;13.00;99.90;;;;;;4962691;28;20418;-70
2023/03/23 02:17:36;;;;;;;3.13;2.43;;;13.00;99.90;;;;;;4993939;28;20413;-71
2023/03/23 02:20:21;;;;;;;3.53;2.73;;;13.00;99.90;;;;;;4978186;28;20452;-70
2023/03/23 02:23:28;;;;;;;3.10;2.80;;;13.00;99.90;;;;;;4978168;28;20476;-70
2023/03/23 02:26:25;;;;;;;3.90;2.40;;;13.00;99.90;;;;;;4979508;28;20426;-71
2023/03/23 02:29:26;;;;;;;3.97;2.87;;;13.00;99.90;;;;;;4995302;28;20414;-71
2023/03/23 02:31:52;;;;;;;3.10;2.70;;;13.00;99.90;;;;;;4970457;28;20475;-71
2023/03/23 02:34:40;;;;;;;3.17;2.83;;;13.00;99.90;;;;;;4962056;28;20914;-71
2023/03/23 02:37:21;;;;;;;3.83;2.70;;;13.00;99.90;;;;;;4977538;28;20968;-71
2023/03/23 02:39:56;;;;;;;3.50;2.43;;;13.00;99.90;;;;;;4977898;28;20439;-71
2023/03/23 02:42:33;;;;;;;3.13;2.80;;;13.00;99.90;;;;;;4977909;28;20808;-71
2023/03/23 02:45:03;;;;;;;3.27;2.97;;;12.90;99.90;;;;;;4977828;28;20833;-71
2023/03/23 02:47:30;;;;;;;3.10;2.80;;;13.00;99.90;;;;;;4961573;28;20441;-71
2023/03/23 02:49:58;;;;;;;3.90;2.80;;;13.00;99.90;;;;;;4977534;28;20437;-71
2023/03/23 02:52:32;;;;;;;2.70;2.37;;;12.90;99.90;;;;;;4977698;28;20406;-71
2023/03/23 02:55:02;;;;;;;3.10;2.80;;;13.00;99.90;;;;;;4961302;28;20459;-71
2023/03/23 02:57:30;;;;;;;6.43;2.70;;;13.00;99.90;;;;;;4994975;28;20504;-71
2023/03/23 03:00:00;;;;;;;3.87;2.63;;;12.90;99.90;;;;;;4977260;28;20439;-71
2023/03/23 03:02:36;;;;;;;3.20;2.57;;;12.90;99.90;;;;;;4994704;28;20443;-71
2023/03/23 03:05:14;;;;;;;3.00;2.70;;;12.90;99.90;;;;;;5061222;22;20502;-86
2023/03/23 03:07:58;;;;;;;3.00;2.30;;;12.90;99.90;;;;;;5020787;28;20488;-86
2023/03/23 03:10:49;;;;;;;4.70;3.17;;;12.90;99.90;;;;;;5054680;28;20411;-85
2023/03/23 03:13:42;;;;;;;3.40;2.87;;;12.90;99.90;;;;;;5054463;28;20496;-86
2023/03/23 03:16:18;;;;;;;2.93;2.57;;;12.90;99.90;;;;;;5037716;28;20416;-85
2023/03/23 03:18:50;;;;;;;4.67;2.83;;;12.90;99.90;;;;;;5037760;28;20402;-86
2023/03/23 03:21:25;;;;;;;2.70;2.50;;;12.90;99.90;;;;;;5037794;28;20430;-87
2023/03/23 03:23:58;;;;;;;3.30;2.60;;;12.90;99.90;;;;;;5037195;28;20484;-86
2023/03/23 03:26:27;;;;;;;3.30;2.63;;;12.90;99.90;;;;;;5036528;28;20434;-86
2023/03/23 03:28:59;;;;;;;3.00;2.80;;;12.90;99.90;;;;;;5018336;28;20749;-87
2023/03/23 03:31:36;;;;;;;3.20;2.60;;;12.90;99.90;;;;;;5050721;28;20407;-87
2023/03/23 03:34:09;;;;;;;2.50;2.20;;;12.90;99.90;;;;;;5034494;28;20498;-87
2023/03/23 03:36:37;;;;;;;5.40;2.93;;;12.90;99.90;;;;;;5037074;28;20468;-87
2023/03/23 03:39:09;;;;;;;2.53;2.33;;;12.90;99.90;;;;;;5037660;28;20439;-87
2023/03/23 03:41:37;;;;;;;3.33;2.40;;;12.90;99.90;;;;;;5046448;28;20791;-85
2023/03/23 03:44:07;;;;;;;3.80;3.30;;;12.90;99.90;;;;;;5050367;28;20432;-86
2023/03/23 03:46:36;;;;;;;2.60;2.40;;;12.90;99.90;;;;;;5050690;28;20463;-87
2023/03/23 03:49:07;;;;;;;3.67;2.40;;;12.90;99.90;;;;;;5034073;28;20437;-86
2023/03/23 03:51:38;;;;;;;3.27;2.40;;;12.90;99.90;;;;;;5046488;28;20437;-86
2023/03/23 03:54:05;;;;;;;3.63;2.50;;;12.90;99.90;;;;;;5036995;28;20461;-87
2023/03/23 03:56:36;;;;;;;3.20;2.10;;;12.90;99.90;;;;;;5052989;28;20432;-85
2023/03/23 03:59:18;;;;;;;3.33;2.77;;;12.90;99.90;;;;;;5033811;28;20506;-86
2023/03/23 04:02:02;;;;;;;3.00;2.67;;;12.90;99.90;;;;;;5052887;28;20466;-86
2023/03/23 04:04:28;;;;;;;2.40;2.20;;;12.90;99.90;;;;;;5053564;28;20432;-85
2023/03/23 04:06:54;;;;;;;4.60;2.93;;;12.90;99.90;;;;;;5053640;28;20778;-86
2023/03/23 04:09:31;;;;;;;4.40;3.10;;;12.90;99.90;;;;;;5053302;28;20421;-86
2023/03/23 04:11:58;;;;;;;3.10;2.47;;;12.90;99.90;;;;;;5037120;28;20465;-86
2023/03/23 04:14:52;;;;;;;3.50;2.43;;;12.90;99.90;;;;;;5032289;28;20439;-86
2023/03/23 04:17:19;;;;;;;4.00;2.50;;;12.90;99.90;;;;;;5049058;28;20782;-86
2023/03/23 04:19:47;;;;;;;3.00;2.50;;;12.90;99.90;;;;;;5001176;28;20438;-87
2023/03/23 04:22:13;;;;;;;3.83;2.20;;;12.90;99.90;;;;;;5033345;28;20449;-87
2023/03/23 04:24:42;;;;;;;2.43;2.23;;;12.90;99.90;;;;;;5033467;28;20398;-86
2023/03/23 04:27:17;;;;;;;3.23;2.67;;;12.90;99.90;;;;;;5017875;28;20546;-86
2023/03/23 04:29:48;;;;;;;2.80;2.40;;;12.90;99.90;;;;;;5037476;28;20434;-87
2023/03/23 04:32:41;;;;;;;3.50;2.40;;;12.90;99.90;;;;;;5057188;28;20441;-86
2023/03/23 04:35:11;;;;;;;2.77;2.57;;;12.90;99.90;;;;;;5040582;28;20458;-87
2023/03/23 04:37:45;;;;;;;3.60;2.50;;;12.80;99.90;;;;;;5041574;28;20420;-87
2023/03/23 04:40:17;;;;;;;2.43;2.20;;;12.90;99.90;;;;;;5057088;28;20874;-87
2023/03/23 04:42:51;;;;;;;2.63;2.43;;;12.80;99.90;;;;;;5057071;28;20419;-85
2023/03/23 04:45:41;;;;;;;2.50;2.30;;;12.90;99.90;;;;;;5040699;28;20874;-87
2023/03/23 04:48:08;;;;;;;2.30;2.10;;;12.80;99.90;;;;;;5040468;28;20542;-86
2023/03/23 04:50:43;;;;;;;3.37;2.40;;;12.80;99.90;;;;;;5056886;28;20869;-86
2023/03/23 04:53:21;;;;;;;2.67;2.33;;;12.80;99.90;;;;;;5044973;28;20499;-87
2023/03/23 04:55:50;;;;;;;2.90;2.60;;;12.80;99.90;;;;;;5039317;28;20430;-87
2023/03/23 04:58:23;;;;;;;2.53;2.30;;;12.80;99.90;;;;;;5053936;28;20455;-87
2023/03/23 05:01:09;;;;;;;3.63;2.60;;;12.80;99.90;;;;;;5025884;28;20788;-87
2023/03/23 05:03:46;;;;;;;2.43;2.23;;;12.80;99.90;;;;;;5040480;28;20468;-87
2023/03/23 05:06:13;;;;;;;2.90;2.40;;;12.80;99.90;;;;;;5040268;28;20486;-86
2023/03/23 05:08:39;;;;;;;2.93;2.53;;;12.80;99.90;;;;;;5055852;28;20431;-86
2023/03/23 05:11:09;;;;;;;3.80;2.40;;;12.80;99.90;;;;;;5039459;28;20455;-86
2023/03/23 05:13:39;;;;;;;2.87;2.50;;;12.80;99.90;;;;;;5039620;28;20443;-88
2023/03/23 05:16:06;;;;;;;2.93;2.67;;;12.90;99.90;;;;;;5036720;28;20785;-87
2023/03/23 05:18:34;;;;;;;3.43;2.33;;;12.80;99.90;;;;;;5020566;28;20437;-87
2023/03/23 05:21:08;;;;;;;2.97;2.37;;;12.80;99.90;;;;;;5036762;28;20410;-86
2023/03/23 05:23:37;;;;;;;3.87;2.63;;;12.80;99.90;;;;;;5049997;28;20449;-86
2023/03/23 05:26:15;;;;;;;3.30;2.57;;;12.80;99.90;;;;;;5055331;28;20923;-87
2023/03/23 05:28:43;;;;;;;5.07;2.50;;;12.80;99.90;;;;;;5072273;28;20521;-86
2023/03/23 05:31:25;;;;;;;3.27;2.63;;;12.80;99.90;;;;;;5039707;28;20462;-85
2023/03/23 05:33:52;;;;;;;3.00;2.70;;;12.80;99.90;;;;;;5022764;28;20443;-86
2023/03/23 05:36:40;;;;;;;2.40;2.20;;;12.80;99.90;;;;;;5055680;28;20754;-85
2023/03/23 05:39:06;;;;;;;2.93;2.70;;;12.80;99.90;;;;;;5056752;28;20429;-87
2023/03/23 05:42:01;;;;;;;3.20;2.70;;;12.80;99.90;;;;;;5028102;28;20454;-87
2023/03/23 05:44:39;;;;;;;3.37;2.73;;;12.80;99.90;;;;;;5027466;28;20445;-86
2023/03/23 05:47:05;;;;;;;3.83;2.60;;;12.80;99.90;;;;;;5056038;28;20961;-86
2023/03/23 05:49:32;;;;;;;5.00;2.53;;;12.80;99.90;;;;;;5038842;28;20446;-86
2023/03/23 05:51:58;;;;;;;3.60;2.60;;;12.80;99.90;;;;;;5039403;28;20797;-86
2023/03/23 05:54:26;;;;;;;3.50;3.00;;;12.80;99.90;;;;;;5055832;28;20491;-86
2023/03/23 05:56:55;;;;;;;3.30;2.50;;;12.80;99.90;;;;;;5039446;28;20438;-87
2023/03/23 05:59:46;;;;;;;3.50;3.03;;;12.80;99.90;;;;;;5056327;28;20405;-86
2023/03/23 06:02:19;;;;;;;3.17;2.93;;;12.80;99.90;;;;;;5055857;28;20408;-86
2023/03/23 06:04:45;;;;;;;2.80;2.60;;;12.80;99.90;;;;;;5055524;28;20461;-87
2023/03/23 06:07:20;;;;;;;5.00;2.83;;;12.80;99.90;;;;;;5051527;28;20538;-86
2023/03/23 06:09:54;;;;;;;3.13;2.47;;;12.80;99.90;;;;;;5019181;28;20407;-87
2023/03/23 06:12:22;;;;;;;3.13;2.30;;;12.80;99.90;;;;;;5035661;28;20507;-87
2023/03/23 06:15:10;;;;;;;4.00;2.70;;;12.80;99.90;;;;;;5032548;28;20506;-86
2023/03/23 06:18:01;;;;;;;3.40;3.00;;;12.80;99.90;;;;;;5055828;28;20442;-85
2023/03/23 06:20:39;;;;;;;3.57;2.50;;;12.80;99.90;;;;;;5039530;28;20502;-87
2023/03/23 06:23:21;;;;;;;3.33;2.93;;;12.80;99.90;;;;;;5018957;28;20451;-86
2023/03/23 06:25:49;;;;;;;3.07;2.77;;;12.80;99.90;;;;;;5019018;28;20445;-86
2023/03/23 06:28:17;;;;;;;4.13;2.53;;;12.80;99.90;;;;;;5048386;28;20479;-85
2023/03/23 06:30:49;;;;;;;4.00;2.50;;;12.80;99.90;;;;;;5024015;28;20440;-87
2023/03/23 06:33:21;;;;;;;3.00;2.70;;;12.80;99.90;;;;;;5040599;28;20436;-87
2023/03/23 06:36:20;;;;;;;3.07;2.77;;;12.80;99.90;;;;;;5034890;28;20438;-85
2023/03/23 06:39:16;;;;;;;7.73;3.00;;;12.80;99.90;;;;;;5046530;28;20498;-87
2023/03/23 06:41:50;;;;;;;3.43;2.40;;;12.80;99.90;;;;;;5035106;28;20411;-85
2023/03/23 06:44:17;;;;;;;4.20;2.80;;;12.80;99.90;;;;;;5036119;28;20430;-86
2023/03/23 06:46:42;;;;;;;3.10;2.67;;;12.80;99.90;;;;;;5037239;28;20551;-86
2023/03/23 06:49:39;;;;;;;3.70;2.73;;;12.80;99.90;;;;;;5039860;28;20441;-86
2023/03/23 06:52:15;;;;;;;3.10;2.50;;;12.80;99.90;;;;;;5043015;28;20799;-85
2023/03/23 06:54:41;;;;;;;4.93;2.90;;;12.80;99.90;;;;;;5055094;28;20822;-85
2023/03/23 06:57:08;;;;;;;11.13;3.17;;;12.80;99.90;;;;;;5038105;28;20449;-85
2023/03/23 06:59:34;;;;;;;3.57;2.47;;;12.80;99.90;;;;;;5037905;28;20441;-87
2023/03/23 07:02:04;;;;;;;3.10;2.80;;;12.80;99.90;;;;;;5050530;28;20462;-86
2023/03/23 07:04:32;;;;;;;5.30;3.00;;;12.80;99.90;;;;;;5040341;28;20468;-86
2023/03/23 07:07:14;;;;;;;4.10;3.27;;;12.80;99.90;;;;;;5054496;28;20506;-86
2023/03/23 07:09:56;;;;;;;6.40;2.40;;;12.80;99.90;;;;;;5053640;28;20492;-85
2023/03/23 07:12:24;;;;;;;4.33;2.80;;;12.80;99.90;;;;;;5037953;28;20420;-85
2023/03/23 07:14:55;;;;;;;6.17;3.03;;;12.80;99.90;;;;;;5054559;28;20757;-87
2023/03/23 07:17:25;;;;;;;4.53;2.70;;;12.80;99.90;;;;;;5037990;28;20464;-86
2023/03/23 07:20:17;;;;;;;3.50;2.80;;;12.80;99.90;;;;;;5047471;28;20443;-86
2023/03/23 07:22:46;;;;;;;4.60;2.93;;;12.80;99.90;;;;;;5037580;28;20464;-87
2023/03/23 07:25:24;;;;;;;4.67;2.67;;;12.80;99.90;;;;;;5038500;28;20767;-85
2023/03/23 07:27:53;;;;;;;3.33;2.53;;;12.80;99.90;;;;;;5056284;28;20476;-85
2023/03/23 07:30:26;;;;;;;5.00;3.00;;;12.80;99.90;;;;;;5068959;28;20460;-86
2023/03/23 07:32:52;;;;;;;4.13;2.40;;;12.80;99.90;;;;;;5046338;28;20489;-87
2023/03/23 07:35:19;;;;;;;4.10;2.57;;;12.80;99.90;;;;;;5037526;28;20447;-88
2023/03/23 07:37:54;;;;;;;3.00;2.50;;;12.80;99.90;;;;;;5035409;28;20422;-88
2023/03/23 07:40:21;;;;;;;3.00;2.70;;;12.80;99.90;;;;;;5037541;28;20453;-89
2023/03/23 07:42:59;;;;;;;3.80;2.57;;;12.80;99.90;;;;;;5050545;28;20804;-85
2023/03/23 07:45:37;;;;;;;6.07;2.67;;;12.80;99.90;;;;;;5036924;28;20478;-88
2023/03/23 07:48:03;;;;;;;5.00;2.10;;;12.80;99.90;;;;;;5037027;28;20468;-87
2023/03/23 07:50:32;;;;;;;4.87;2.80;;;12.80;99.90;;;;;;5053860;28;20417;-86
2023/03/23 07:52:58;;;;;;;3.63;2.83;;;12.80;99.90;;;;;;5052745;28;20428;-86
2023/03/23 07:55:27;;;;;;;4.13;2.50;;;12.80;99.90;;;;;;5022799;28;20421;-85
2023/03/23 07:58:09;;;;;;;6.30;2.47;;;12.80;99.90;;;;;;5037452;28;20569;-86
2023/03/23 08:00:38;;;;;;;4.77;2.53;;;12.80;99.90;;;;;;5037160;28;20466;-88
2023/03/23 08:03:08;;;;;;;9.13;2.60;;;12.80;99.90;;;;;;5036820;28;20542;-87
2023/03/23 08:05:45;;;;;;;6.47;2.90;;;12.90;99.90;;;;;;5046049;28;20437;-87
2023/03/23 08:08:32;;;;;;;2.73;2.30;;;12.90;99.90;;;;;;5034386;28;20448;-87
2023/03/23 08:11:29;;;;;;;8.23;2.53;;;12.90;99.90;;;;;;5038089;28;20433;-88
2023/03/23 08:14:28;;;;;;;4.00;2.80;;;12.90;99.90;;;;;;5041812;28;20845;-86
2023/03/23 08:17:12;;;;;;;4.00;2.90;;;12.80;99.90;;;;;;5051132;28;20814;-85
2023/03/23 08:20:09;;;;;;;4.47;2.60;;;12.80;99.90;;;;;;5045932;28;20435;-85
2023/03/23 08:22:53;;;;;;;3.00;2.60;;;12.90;99.90;;;;;;5036234;28;20441;-87
2023/03/23 08:25:36;;;;;;;4.60;2.60;;;12.90;99.90;;;;;;5052668;28;20479;-87
2023/03/23 08:28:16;;;;;;;4.10;2.67;;;12.90;99.90;;;;;;5052569;28;20830;-86
2023/03/23 08:31:06;;;;;;;4.00;2.60;;;12.90;99.90;;;;;;5048362;28;20441;-87
2023/03/23 08:33:42;;;;;;;3.50;2.60;;;12.90;99.90;;;;;;5052513;28;20475;-87
2023/03/23 08:36:22;;;;;;;3.53;2.40;;;12.90;99.90;;;;;;5053074;28;20431;-87
2023/03/23 08:38:52;;;;;;;5.40;2.50;;;12.90;99.90;;;;;;5053468;28;20440;-86
2023/03/23 08:41:38;;;;;;;4.70;2.80;;;12.90;99.90;;;;;;5049665;28;20738;-86
2023/03/23 08:44:16;;;;;;;5.07;2.87;;;12.90;99.90;;;;;;5034566;28;20424;-87
2023/03/23 08:47:03;;;;;;;4.37;2.70;;;12.90;99.90;;;;;;5033364;28;21007;-87
2023/03/23 08:49:58;;;;;;;3.80;1.93;;;12.90;99.90;;;;;;5014987;28;20417;-86
2023/03/23 08:52:50;;;;;;;3.17;2.20;;;12.90;99.90;;;;;;5043441;28;20468;-87
2023/03/23 08:55:24;;;;;;;3.83;2.10;;;13.00;99.90;;;;;;5021362;28;20814;-85
2023/03/23 08:58:19;;;;;;;3.40;2.27;;;12.90;99.90;;;;;;5048972;28;20456;-87
2023/03/23 09:01:10;;;;;;;3.33;2.40;;;13.00;99.90;;;;;;5036248;28;20656;-86
2023/03/23 09:03:57;;;;;;;3.40;2.10;;;13.00;99.90;;;;;;5052998;28;20437;-86
2023/03/23 09:06:27;;;;;;;6.50;2.60;;;13.00;99.90;;;;;;5048927;28;20463;-87
2023/03/23 09:08:55;;;;;;;4.30;2.23;;;13.00;99.90;;;;;;5033032;28;20780;-86
2023/03/23 09:11:21;;;;;;;4.97;2.50;;;13.00;99.90;;;;;;5036161;28;20449;-86
2023/03/23 09:13:48;;;;;;;2.60;2.10;;;13.00;99.90;;;;;;5037707;28;20425;-87
2023/03/23 09:16:14;;;;;;;3.57;1.80;;;13.00;99.90;;;;;;5057376;28;20475;-85
2023/03/23 09:18:40;;;;;;;4.67;2.27;;;13.00;99.90;;;;;;5040026;28;20506;-87
2023/03/23 09:21:10;;;;;;;3.10;2.03;;;13.00;99.90;;;;;;5039992;28;20413;-87
2023/03/23 09:23:52;;;;;;;3.23;1.90;;;13.00;99.90;;;;;;5056100;28;20456;-86
2023/03/23 09:26:18;;;;;;;5.57;2.10;;;13.00;99.90;;;;;;5040005;28;20780;-86
2023/03/23 09:28:49;;;;;;;5.57;2.37;;;13.00;99.90;;;;;;5020377;28;20470;-87
2023/03/23 09:31:22;;;;;;;5.80;1.97;;;13.00;99.90;;;;;;5036623;28;20404;-86
2023/03/23 09:33:51;;;;;;;3.40;1.80;;;13.00;99.90;;;;;;5020158;28;20449;-85
2023/03/23 09:36:25;;;;;;;7.57;2.07;;;13.00;99.90;;;;;;5036284;28;20439;-85
2023/03/23 09:38:52;;;;;;;5.23;1.97;;;13.10;99.90;;;;;;5036653;28;20430;-87
2023/03/23 09:41:29;;;;;;;4.03;2.57;;;13.10;99.90;;;;;;5052944;28;20432;-83
2023/03/23 09:44:16;;;;;;;3.30;2.33;;;13.10;99.90;;;;;;5037130;28;20484;-86
2023/03/23 09:46:58;;;;;;;3.00;1.93;;;13.10;99.90;;;;;;5019559;28;20458;-86
2023/03/23 09:49:28;;;;;;;3.50;2.10;;;13.10;99.90;;;;;;5036236;28;20474;-89
2023/03/23 09:52:00;;;;;;;4.97;2.30;;;13.10;99.90;;;;;;5020549;28;20459;-88
2023/03/23 09:54:42;;;;;;;6.80;2.17;;;13.10;99.90;;;;;;5056438;28;20429;-90
2023/03/23 09:57:16;;;;;;;2.57;1.90;;;13.10;99.90;;;;;;5023574;28;20500;-89
2023/03/23 10:00:16;;;;;;;2.67;1.70;;;13.00;99.90;;;;;;5040543;28;20427;-88
2023/03/23 10:02:55;;;;;;;4.37;1.67;;;13.00;99.90;;;;;;5039655;28;20449;-89
2023/03/23 10:05:39;;;;;;;5.67;1.60;;;13.00;99.90;;;;;;5055765;28;20457;-89
2023/03/23 10:08:32;;;;;;;2.13;1.63;;;13.00;99.90;;;;;;5038977;28;20480;-89
2023/03/23 10:11:17;;;;;;;4.80;1.73;;;12.90;99.90;;;;;;5037371;28;20790;-88
2023/03/23 10:14:20;;;;;;;2.67;1.87;;;12.90;99.90;;;;;;5056984;28;20737;-89
2023/03/23 10:17:13;;;;;;;3.30;1.73;;;12.90;99.90;;;;;;5056690;28;20483;-89
2023/03/23 10:19:49;;;;;;;4.90;1.83;;;12.90;99.90;;;;;;5039925;28;20419;-89
2023/03/23 10:22:22;;;;;;;3.57;1.53;;;12.90;99.90;;;;;;5039105;28;20435;-89
2023/03/23 10:25:01;;;;;;;2.73;1.40;;;12.90;99.90;;;;;;5054664;28;20485;-87
2023/03/23 10:27:55;;;;;;;3.07;1.50;;;12.80;99.90;;;;;;5038907;28;20480;-89
2023/03/23 10:30:30;;;;;;;2.50;1.27;;;12.80;99.90;;;;;;5055841;28;20710;-88
2023/03/23 10:33:13;;;;;;;2.13;1.40;;;12.80;99.90;;;;;;5056346;28;20958;-88
2023/03/23 10:35:48;;;;;;;3.33;1.30;;;12.80;99.90;;;;;;5055790;28;20750;-88
2023/03/23 10:38:20;;;;;;;1.80;1.50;;;12.80;99.90;;;;;;5056494;28;20405;-89
2023/03/23 10:40:52;;;;;;;2.20;1.40;;;12.80;99.90;;;;;;5038967;28;20434;-89
2023/03/23 10:43:21;;;;;;;2.90;1.30;;;12.70;99.90;;;;;;5055301;28;20444;-89
2023/03/23 10:45:57;;;;;;;3.63;1.57;;;12.70;99.90;;;;;;5055141;28;20445;-89
2023/03/23 10:48:30;;;;;;;2.50;1.43;;;12.70;99.90;;;;;;5055230;28;20461;-89
2023/03/23 10:51:02;;;;;;;4.87;1.37;;;12.70;99.90;;;;;;5038902;28;20429;-89
2023/03/23 10:53:37;;;;;;;2.80;1.50;;;12.70;99.90;;;;;;5054942;28;20468;-89
2023/03/23 10:56:04;;;;;;;2.63;1.70;;;12.70;99.90;;;;;;5034043;28;20481;-88
2023/03/23 10:58:33;;;;;;;2.60;1.53;;;12.70;99.90;;;;;;5018717;28;20855;-88
2023/03/23 11:01:01;;;;;;;5.53;1.20;;;12.70;99.90;;;;;;5001972;28;20430;-89
2023/03/23 11:03:42;;;;;;;2.37;1.33;;;12.70;99.90;;;;;;5018609;28;20475;-87
2023/03/23 11:06:10;;;;;;;3.90;1.70;;;12.70;99.90;;;;;;5035889;28;20420;-89
2023/03/23 11:08:49;;;;;;;5.30;1.63;;;12.70;99.90;;;;;;5018250;28;20521;-87
2023/03/23 11:11:21;;;;;;;3.30;1.70;;;12.70;99.90;;;;;;5018954;28;20446;-88
2023/03/23 11:13:56;;;;;;;2.37;1.47;;;12.70;99.90;;;;;;5018578;28;20466;-90
2023/03/23 11:16:24;;;;;;;3.93;1.80;;;12.70;99.90;;;;;;5003310;28;20443;-88
2023/03/23 11:18:50;;;;;;;4.20;1.33;;;12.70;99.90;;;;;;5051823;28;20971;-94
2023/03/23 11:21:16;;;;;;;2.77;1.50;;;12.70;99.90;;;;;;5019166;28;20441;-93
2023/03/23 11:23:49;;;;;;;3.53;1.50;;;12.70;99.90;;;;;;5019605;28;20956;-94
2023/03/23 11:26:22;;;;;;;2.80;1.63;;;12.70;99.90;;;;;;5019489;28;20415;-93
2023/03/23 11:29:13;;;;;;;3.70;1.53;;;12.70;99.90;;;;;;5018910;28;20796;-94
2023/03/23 11:31:43;;;;;;;1.60;1.23;;;12.70;99.90;;;;;;5052350;28;20458;-94
2023/03/23 11:34:18;;;;;;;2.93;1.27;;;12.70;99.90;;;;;;5019351;28;20400;-94
2023/03/23 11:36:49;;;;;;;2.83;1.43;;;12.70;99.90;;;;;;5035323;28;20664;-93
2023/03/23 11:39:29;;;;;;;2.07;1.57;;;12.70;99.90;;;;;;5035888;28;20441;-94
2023/03/23 11:41:59;;;;;;;2.53;1.67;;;12.70;99.90;;;;;;5019312;28;20551;-93
2023/03/23 11:44:40;;;;;;;2.10;1.40;;;12.70;99.90;;;;;;5019215;28;20429;-94
2023/03/23 11:47:29;;;;;;;2.03;1.50;;;12.70;99.90;;;;;;5018812;28;20479;-94
2023/03/23 11:50:16;;;;;;;5.23;1.43;;;12.70;99.90;;;;;;5018786;28;20442;-93
2023/03/23 11:53:15;;;;;;;2.70;1.43;;;12.70;99.90;;;;;;5035489;28;20417;-95
2023/03/23 11:56:31;;;;;;;2.40;1.53;;;12.70;99.90;;;;;;5017877;28;20441;-95
2023/03/23 11:58:59;;;;;;;3.30;1.70;;;12.70;99.90;;;;;;5009639;28;20470;-96
2023/03/23 12:01:33;;;;;;;2.37;1.90;;;12.70;99.90;;;;;;5035377;28;20459;-95
2023/03/23 12:04:33;;;;;;;1.80;1.60;;;12.70;99.90;;;;;;5018662;28;20479;-96
2023/03/23 12:07:33;;;;;;;2.10;1.60;;;12.70;99.90;;;;;;5051084;28;20465;-96
2023/03/23 12:10:28;;;;;;;2.23;1.77;;;12.70;99.90;;;;;;5023163;28;20464;-96
2023/03/23 12:13:29;;;;;;;2.70;1.67;;;12.70;99.90;;;;;;5040640;28;20727;-95
2023/03/23 12:16:22;;;;;;;1.70;1.43;;;12.70;99.90;;;;;;5022083;28;20471;-95
2023/03/23 12:19:00;;;;;;;3.20;2.23;;;12.70;99.90;;;;;;5038542;28;20444;-95
2023/03/23 12:21:54;;;;;;;1.77;1.40;;;12.70;99.90;;;;;;5039336;28;20450;-94
2023/03/23 12:24:39;;;;;;;3.00;1.77;;;12.70;99.90;;;;;;5022364;28;20511;-94
2023/03/23 12:31:16;;;;;;;3.43;1.63;;;12.70;99.90;;;;;;5035040;28;20453;-95
2023/03/23 12:33:55;;;;;;;3.70;1.70;;;12.70;99.90;;;;;;5014160;28;20450;-95
2023/03/23 12:36:27;;;;;;;3.13;1.87;;;12.70;99.90;;;;;;5035149;28;20747;-95
2023/03/23 12:39:27;;;;;;;2.90;2.30;;;12.80;99.90;;;;;;5035470;28;20748;-94
2023/03/23 12:42:15;;;;;;;2.23;2.03;;;12.80;99.90;;;;;;5034792;28;20422;-93
2023/03/23 12:44:50;;;;;;;3.57;1.97;;;12.80;99.90;;;;;;5018591;28;20457;-95
2023/03/23 12:47:26;;;;;;;3.00;1.90;;;12.80;99.90;;;;;;5035182;28;20817;-94
2023/03/23 12:50:03;;;;;;;2.33;1.70;;;12.80;99.90;;;;;;5021708;28;20454;-93
2023/03/23 12:52:51;;;;;;;3.73;1.57;;;12.80;99.90;;;;;;5038553;28;20440;-95
2023/03/23 12:55:33;;;;;;;2.70;1.67;;;12.80;99.90;;;;;;5038704;28;20754;-94
2023/03/23 12:58:24;;;;;;;1.67;1.47;;;12.80;99.90;;;;;;5054689;28;20439;-95
2023/03/23 13:01:10;;;;;;;3.40;1.80;;;12.80;99.90;;;;;;5038667;28;20430;-93
2023/03/23 13:03:55;;;;;;;2.63;1.73;;;12.80;99.90;;;;;;5022032;28;20848;-93
2023/03/23 13:06:32;;;;;;;5.10;1.73;;;12.80;99.90;;;;;;5041211;28;20748;-93
2023/03/23 13:09:06;;;;;;;3.90;1.50;;;12.80;99.90;;;;;;5041798;28;20408;-94
2023/03/23 13:11:37;;;;;;;4.77;1.77;;;12.80;99.90;;;;;;5058094;28;20492;-95
2023/03/23 13:14:26;;;;;;;3.73;1.90;;;12.80;99.90;;;;;;5041499;28;20449;-94
2023/03/23 13:17:01;;;;;;;1.90;1.60;;;12.80;99.90;;;;;;5025112;28;20461;-95
2023/03/23 13:20:15;;;;;;;3.03;1.77;;;12.80;99.90;;;;;;5030732;28;20414;-95
2023/03/23 13:22:57;;;;;;;7.97;2.10;;;12.80;99.90;;;;;;5025189;28;20490;-95
2023/03/23 13:25:45;;;;;;;;;;;;;;;;;;;;;
2023/03/23 13:28:36;;;;;;;3.10;1.73;;;12.80;99.90;;;;;;5057768;28;20465;-95
2023/03/23 13:31:35;;;;;;;5.13;2.27;;;12.80;99.90;;;;;;5042722;28;20464;-95
2023/03/23 13:34:53;;;;;;;2.10;1.87;;;12.80;99.90;;;;;;5057838;28;20435;-95
2023/03/23 13:37:49;;;;;;;4.00;2.03;;;12.80;99.90;;;;;;5036797;28;20593;-94
2023/03/23 13:40:27;;;;;;;4.30;2.20;;;12.90;99.90;;;;;;5041313;28;20913;-94